Latest Weather Observations for Tuggeranong

IDN60901

Issued at 11:15 pm EST Friday 18 April 2014 (issued every 10 minutes, with the page automatically refreshed every 10 minutes)

About weather observations | Map of Canberra area stations | Latest observations for Canberra area | Other Formats
Station Details ID: 070339 Name: TUGGERANONG (ISABELLA PLAINS) AWS Lat: -35.42 Lon: 149.09 Height: 586.7 m
Data from the previous 72 hours. | See also: Recent months at Tuggeranong
Date/Time
EST
Tmp

°C
App
Tmp
°C
Dew
Point
°C
Rel
Hum
%
Delta-T

°C
Wind Press
QNH
hPa
Press
MSL
hPa
Rain
since
9 am
mm
Dir
 
Spd
km/h
Gust
km/h
Spd
kts
Gust
kts
18/11:00pm 10.6 9.5 6.9 78 1.8 W 2 7 1 4 1016.2 1015.2 0.0
18/10:30pm 11.9 9.9 7.0 72 2.4 SW 7 11 4 6 1016.1 - 0.0
18/10:00pm 14.2 12.2 8.6 69 2.9 W 9 13 5 7 1015.8 1014.8 0.0
18/09:30pm 14.8 12.3 8.3 65 3.4 WNW 11 17 6 9 1015.4 - 0.0
18/09:00pm 14.9 13.2 8.2 64 3.5 NNW 7 11 4 6 1015.4 1014.5 0.0
18/08:30pm 15.1 13.0 8.1 63 3.6 NNW 9 13 5 7 1015.3 - 0.0
18/08:00pm 15.0 12.8 8.0 63 3.6 NNW 9 13 5 7 1015.1 1014.2 0.0
18/07:30pm 15.2 13.0 8.0 62 3.7 NNW 9 13 5 7 1015.1 - 0.0
18/07:00pm 15.6 12.9 7.4 58 4.2 NW 11 19 6 10 1015.0 1014.0 0.0
18/06:30pm 15.3 13.0 7.6 60 4.0 NW 9 13 5 7 1015.0 - 0.0
18/06:00pm 15.7 13.5 7.7 59 4.1 NNW 9 15 5 8 1014.8 1013.8 0.0
18/05:30pm 16.0 13.4 7.7 58 4.3 NNW 11 15 6 8 1014.5 - 0.0
18/05:00pm 16.6 14.1 8.1 57 4.4 NW 11 15 6 8 1014.2 1013.2 0.0
18/04:30pm 16.9 14.4 8.1 56 4.6 NW 11 17 6 9 1014.4 - 0.0
18/04:00pm 17.0 13.5 7.4 53 5.0 WNW 15 22 8 12 1014.2 1013.2 0.0
18/03:30pm 18.4 15.0 7.5 49 5.7 WNW 15 24 8 13 1014.1 - 0.0
18/03:00pm 18.5 14.3 7.6 49 5.7 WNW 19 28 10 15 1014.1 1013.1 0.0
18/02:30pm 18.2 14.3 7.3 49 5.7 W 17 28 9 15 1014.0 - 0.0
18/02:00pm 18.4 13.6 5.6 43 6.4 WNW 20 28 11 15 1014.0 1013.0 0.0
18/01:30pm 19.9 16.1 7.6 45 6.5 W 17 24 9 13 1013.9 - 0.0
18/01:00pm 18.4 15.5 8.1 51 5.4 W 13 17 7 9 1014.4 1013.4 0.0
18/12:30pm 17.7 14.8 8.0 53 5.1 WNW 13 20 7 11 1015.2 - 0.0
18/12:00pm 17.4 15.8 10.3 63 3.9 NW 9 19 5 10 1015.7 1014.7 0.0
18/11:30am 15.6 14.2 9.7 68 3.2 NNW 7 13 4 7 1016.4 - 0.0
18/11:00am 14.0 11.9 8.4 69 2.9 N 9 13 5 7 1016.7 1015.8 0.0
18/10:30am 13.6 11.9 8.4 71 2.7 NNW 7 13 4 7 1017.1 - 0.0
18/10:00am 12.4 11.1 9.1 80 1.7 SE 6 9 3 5 1017.5 1016.5 0.0
18/09:30am 11.0 9.6 7.3 78 1.8 WSW 4 7 2 4 1017.8 - 0.0
18/09:00am 10.6 9.6 7.5 81 1.5 NNE 2 6 1 3 1018.1 1017.2 0.0
18/08:30am 8.7 8.0 6.8 88 0.9 CALM 0 0 0 0 1018.6 - 0.0
18/08:00am 7.1 6.3 6.4 95 0.3 CALM 0 6 0 3 1018.5 1017.6 0.0
18/07:30am 5.8 3.7 5.7 99 0.0 E 6 7 3 4 1018.4 - 0.0
18/07:00am 4.2 2.5 4.1 99 0.0 NE 2 6 1 3 1018.5 1017.6 0.0
18/06:30am 3.6 2.2 3.5 99 0.0 CALM 0 0 0 0 1018.0 - 0.0
18/06:00am 3.2 0.9 2.9 98 0.1 W 4 7 2 4 1018.1 1017.2 0.0
18/05:30am 3.7 2.3 3.4 98 0.1 CALM 0 0 0 0 1018.1 - 0.0
18/05:00am 4.0 2.7 3.9 99 0.0 CALM 0 0 0 0 1018.4 1017.5 0.0
18/04:30am 4.2 2.9 4.1 99 0.0 CALM 0 0 0 0 1018.4 - 0.0
18/04:00am 4.6 3.4 4.5 99 0.0 CALM 0 0 0 0 1018.3 1017.4 0.0
18/03:30am 4.4 3.1 4.0 97 0.2 CALM 0 0 0 0 1018.5 - 0.0
18/03:00am 4.7 3.4 4.1 96 0.3 NNE 0 0 0 0 1018.7 1017.8 0.0
18/02:30am 5.3 4.2 5.0 98 0.1 CALM 0 0 0 0 1019.0 - 0.0
18/02:00am 5.6 4.5 5.3 98 0.1 CALM 0 0 0 0 1019.1 1018.2 0.0
18/01:30am 5.6 4.5 5.2 97 0.2 CALM 0 0 0 0 1019.4 - 0.0
18/01:00am 6.7 5.9 6.6 99 0.0 CALM 0 0 0 0 1019.9 1019.0 0.0
18/12:30am 6.3 5.4 5.9 97 0.2 CALM 0 0 0 0 1020.1 - 0.0
18/12:00am 6.8 5.9 6.2 96 0.3 ESE 0 0 0 0 1020.2 1019.3 0.0
 
Date/Time
EST
Tmp

°C
App
Tmp
°C
Dew
Point
°C
Rel
Hum
%
Delta-T

°C
Wind Press
QNH
hPa
Press
MSL
hPa
Rain
since
9 am
mm
Dir
 
Spd
km/h
Gust
km/h
Spd
kts
Gust
kts
17/11:30pm 7.6 6.9 7.0 96 0.3 CALM 0 0 0 0 1020.3 - 0.0
17/11:00pm 7.8 7.1 6.9 94 0.4 CALM 0 0 0 0 1020.6 1019.7 0.0
17/10:30pm 8.3 7.7 7.2 93 0.5 CALM 0 0 0 0 1020.8 - 0.0
17/10:00pm 9.0 8.6 8.1 94 0.4 CALM 0 0 0 0 1020.9 1020.0 0.0
17/09:30pm 9.5 8.3 8.1 91 0.7 SSE 4 6 2 3 1020.7 - 0.0
17/09:00pm 9.6 9.1 8.0 90 0.8 CALM 0 2 0 1 1020.7 1019.8 0.0
17/08:30pm 10.9 9.3 8.7 86 1.1 ESE 7 9 4 5 1020.4 - 0.0
17/08:00pm 11.2 9.7 8.6 84 1.3 E 6 9 3 5 1020.3 1019.4 0.0
17/07:30pm 11.5 10.0 8.5 82 1.5 E 6 9 3 5 1020.1 - 0.0
17/07:00pm 12.2 11.3 9.2 82 1.6 E 4 9 2 5 1020.0 1019.1 0.0
17/06:30pm 12.8 12.5 8.5 75 2.2 CALM 0 0 0 0 1019.8 - 0.0
17/06:00pm 14.6 13.6 9.0 69 2.9 NNW 4 7 2 4 1019.6 1018.7 0.0
17/05:30pm 15.9 14.5 8.9 63 3.7 NW 6 9 3 5 1019.5 - 0.0
17/05:00pm 17.2 14.9 8.9 58 4.4 WNW 11 15 6 8 1019.1 1018.2 0.0
17/04:30pm 18.6 16.7 9.1 54 5.1 WNW 9 15 5 8 1019.0 - 0.0
17/04:00pm 18.9 16.9 8.6 51 5.5 WNW 9 11 5 6 1019.0 1018.1 0.0
17/03:30pm 19.5 17.8 8.5 49 5.9 WNW 7 13 4 7 1019.0 - 0.0
17/03:00pm 19.2 16.8 8.5 50 5.7 W 11 17 6 9 1019.3 1018.3 0.0
17/02:30pm 19.1 17.1 7.2 46 6.2 WSW 7 13 4 7 1019.4 - 0.0
17/02:00pm 19.1 16.6 6.6 44 6.4 WSW 9 13 5 7 1019.5 1018.5 0.0
17/01:30pm 18.9 17.1 8.0 49 5.8 W 7 9 4 5 1019.6 - 0.0
17/01:00pm 18.7 17.1 8.1 50 5.6 SW 6 11 3 6 1020.0 1019.1 0.0
17/12:30pm 18.5 16.6 7.6 49 5.7 WNW 7 15 4 8 1020.3 - 0.0
17/12:00pm 17.6 15.3 7.6 52 5.2 SSW 9 15 5 8 1020.7 1019.8 0.0
17/11:30am 17.8 16.5 7.8 52 5.2 SW 4 9 2 5 1021.3 - 0.0
17/11:00am 17.2 15.5 8.4 56 4.6 W 7 11 4 6 1021.6 1020.7 0.0
17/10:30am 16.1 14.9 9.5 65 3.5 NW 6 9 3 5 1021.8 - 0.0
17/10:00am 15.0 13.9 8.3 64 3.5 S 4 7 2 4 1021.9 1021.0 0.0
17/09:30am 13.0 11.5 8.5 74 2.3 WSW 6 9 3 5 1022.0 - 0.0
17/09:00am 11.8 11.3 7.7 76 2.1 CALM 0 7 0 4 1022.1 1021.2 0.0
17/08:30am 10.2 9.6 7.4 83 1.4 CALM 0 0 0 0 1022.2 - 0.0
17/08:00am 8.6 7.2 7.4 92 0.6 W 4 7 2 4 1022.1 1021.2 0.0
17/07:30am 7.0 6.3 6.9 99 0.0 CALM 0 0 0 0 1021.8 - 0.0
17/07:00am 5.0 3.9 4.9 99 0.0 CALM 0 0 0 0 1021.3 1020.4 0.0
17/06:30am 4.4 3.1 4.0 97 0.2 CALM 0 0 0 0 1020.9 - 0.0
17/06:00am 4.6 3.3 4.2 97 0.2 CALM 0 0 0 0 1020.8 1019.9 0.0
17/05:30am 4.9 3.7 4.5 97 0.2 CALM 0 0 0 0 1020.5 - 0.0
17/05:00am 5.2 4.0 4.6 96 0.3 CALM 0 0 0 0 1020.4 1019.5 0.0
17/04:30am 5.8 4.8 5.4 97 0.2 CALM 0 0 0 0 1020.3 - 0.0
17/04:00am 5.9 4.9 5.6 98 0.1 CALM 0 0 0 0 1020.1 1019.2 0.0
17/03:30am 6.1 5.1 5.8 98 0.1 CALM 0 0 0 0 1020.1 - 0.0
17/03:00am 6.6 5.8 6.3 98 0.1 CALM 0 0 0 0 1020.1 1019.2 0.0
17/02:30am 6.7 5.8 6.1 96 0.3 CALM 0 0 0 0 1020.2 - 0.0
17/02:00am 6.8 5.9 5.9 94 0.4 CALM 0 0 0 0 1020.4 1019.5 0.0
17/01:30am 7.3 6.4 6.2 93 0.5 CALM 0 0 0 0 1020.5 - 0.0
17/01:00am 8.2 7.6 7.4 95 0.4 CALM 0 0 0 0 1020.8 1019.9 0.0
17/12:30am 8.3 7.6 7.1 92 0.6 CALM 0 0 0 0 1020.9 - 0.0
17/12:00am 9.2 8.7 7.8 91 0.7 CALM 0 0 0 0 1020.9 1020.0 0.0
 
Date/Time
EST
Tmp

°C
App
Tmp
°C
Dew
Point
°C
Rel
Hum
%
Delta-T

°C
Wind Press
QNH
hPa
Press
MSL
hPa
Rain
since
9 am
mm
Dir
 
Spd
km/h
Gust
km/h
Spd
kts
Gust
kts
16/11:30pm 9.6 9.2 8.2 91 0.7 CALM 0 0 0 0 1020.8 - 0.0
16/11:00pm 9.5 9.1 8.1 91 0.7 CALM 0 0 0 0 1020.8 1019.9 0.0
16/10:30pm 9.6 9.1 7.7 88 0.9 CALM 0 0 0 0 1020.8 - 0.0
16/10:00pm 10.7 9.8 7.8 82 1.4 ESE 2 6 1 3 1020.9 1020.0 0.0
16/09:30pm 11.9 9.9 8.7 81 1.6 E 9 11 5 6 1020.8 - 0.0
16/09:00pm 12.2 10.8 9.6 84 1.4 E 7 9 4 5 1020.5 1019.6 0.0
16/08:30pm 12.2 11.0 9.4 83 1.5 E 6 7 3 4 1020.3 - 0.0
16/08:00pm 13.3 13.3 9.9 80 1.8 CALM 0 0 0 0 1020.0 1019.1 0.0
16/07:30pm 13.9 14.0 10.3 79 1.9 CALM 0 4 0 2 1019.8 - 0.0
16/07:00pm 13.4 13.3 9.5 77 2.0 CALM 0 0 0 0 1019.8 1018.9 0.0
16/06:30pm 13.8 13.5 8.8 72 2.6 CALM 0 6 0 3 1019.5 - 0.0
16/06:00pm 15.2 14.6 8.9 66 3.3 NW 2 6 1 3 1019.3 1018.3 0.0
16/05:30pm 16.2 14.3 8.9 62 3.9 NW 9 13 5 7 1019.0 - 0.0
16/05:00pm 17.1 14.7 8.5 57 4.5 W 11 15 6 8 1018.7 1017.8 0.0
16/04:30pm 17.8 15.7 8.4 54 5.0 W 9 13 5 7 1018.5 - 0.0
16/04:00pm 19.1 17.2 7.5 47 6.1 W 7 9 4 5 1018.3 1017.4 0.0
16/03:30pm 18.9 17.1 8.0 49 5.8 NW 7 11 4 6 1018.5 - 0.0
16/03:00pm 19.3 17.0 7.4 46 6.2 WNW 9 15 5 8 1018.6 1017.7 0.0
16/02:30pm 19.1 17.1 7.2 46 6.2 WNW 7 11 4 6 1018.8 - 0.0
16/02:00pm 18.9 16.7 6.4 44 6.4 E 7 11 4 6 1019.0 1018.1 0.0
16/01:30pm 18.6 16.8 7.1 47 6.0 SE 6 9 3 5 1019.3 - 0.0
16/01:00pm 18.0 15.8 6.2 46 6.0 WSW 7 15 4 8 1019.6 1018.7 0.0
16/12:30pm 18.0 15.9 5.6 44 6.2 N 6 9 3 5 1019.9 - 0.0
16/12:00pm 17.0 14.5 5.0 45 5.9 WSW 7 13 4 7 1020.4 1019.5 0.0
16/11:30am 16.4 12.8 5.1 47 5.6 E 13 19 7 10 1020.9 - 0.0
16/11:00am 16.1 13.0 5.4 49 5.3 ESE 11 19 6 10 1021.5 1020.6 0.0
16/10:30am 15.1 13.1 6.1 55 4.5 SW 6 11 3 6 1021.8 - 0.0
16/10:00am 15.3 13.3 6.1 54 4.6 ESE 6 13 3 7 1022.0 1021.1 0.0
16/09:30am 13.6 10.5 5.5 58 3.9 S 11 15 6 8 1022.4 - 0.0
16/09:00am 13.0 9.5 5.4 60 3.7 SSE 13 17 7 9 1022.6 1021.8 0.0
16/08:30am 12.0 10.3 6.1 67 2.9 SW 4 11 2 6 1022.6 - 0.0
16/08:00am 10.9 9.2 7.4 79 1.7 NNW 6 7 3 4 1022.4 1021.5 0.0
16/07:30am 8.7 6.8 6.5 86 1.1 WNW 6 7 3 4 1022.3 - 0.0
16/07:00am 6.7 4.5 5.5 92 0.5 WNW 6 7 3 4 1021.9 1021.0 0.0
16/06:30am 6.3 5.1 4.6 89 0.8 CALM 0 0 0 0 1021.7 - 0.0
16/06:00am 6.9 5.6 4.2 83 1.2 CALM 0 0 0 0 1021.5 1020.6 0.0
16/05:30am 9.4 6.7 5.8 78 1.7 SSE 9 17 5 9 1021.5 - 0.0
16/05:00am 8.2 6.5 5.7 84 1.2 SE 4 9 2 5 1021.5 1020.6 0.0
16/04:30am 9.2 7.0 5.4 77 1.8 S 6 9 3 5 1021.6 - 0.0
16/04:00am 10.4 7.0 5.8 73 2.2 SSE 13 20 7 11 1021.4 1020.5 0.0
16/03:30am 10.5 7.1 5.9 73 2.2 SSE 13 17 7 9 1021.3 - 0.0
16/03:00am 10.7 7.3 6.1 73 2.2 SSE 13 22 7 12 1021.4 1020.5 0.0
16/02:30am 11.1 7.8 6.5 73 2.2 SSE 13 24 7 13 1021.6 - 0.0
16/02:00am 11.4 7.8 6.7 73 2.3 SE 15 26 8 14 1021.8 1020.9 0.0
16/01:30am 11.6 8.1 7.1 74 2.2 SE 15 28 8 15 1022.0 - 0.0
16/01:00am 11.7 7.9 7.4 75 2.1 SE 17 24 9 13 1022.2 1021.3 0.0
16/12:30am 11.9 8.9 7.6 75 2.2 SSE 13 19 7 10 1022.3 - 0.0
16/12:00am 11.8 8.8 7.9 77 2.0 SSE 13 17 7 9 1022.4 1021.5 0.0
 
Date/Time
EST
Tmp

°C
App
Tmp
°C
Dew
Point
°C
Rel
Hum
%
Delta-T

°C
Wind Press
QNH
hPa
Press
MSL
hPa
Rain
since
9 am
mm
Dir
 
Spd
km/h
Gust
km/h
Spd
kts
Gust
kts
15/11:30pm 12.0 9.4 7.9 76 2.1 SSE 11 22 6 12 1022.6 - 0.0

Latest Capital City Observations: Canberra | Sydney | Melbourne | Brisbane | Adelaide | Perth | Hobart | Darwin

Other Formats:

Comma delimited format used in spreadsheet applications
http://www.bom.gov.au/fwo/IDN60903/IDN60903.94925.axf

JavaScript Object Notation format (JSON) in row-major order
http://www.bom.gov.au/fwo/IDN60903/IDN60903.94925.json